Time;durP1;ratioP1;P1;durP2;ratioP2;P2;SDS_P1;SDS_P2;PMS_P1;PMS_P2;Temp;Humidity;BMP_temperature;BMP_pressure;BME280_temperature;BME280_humidity;BME280_pressure;Samples;Min_cycle;Max_cycle;Signal;HPM_P1;HPM_P2
2021/05/17 00:01:35;;;;;;;0.17;0.17;;;;;;;-150.07;67.41;62292.75;4968331;28;20022;-88
2021/05/17 00:04:07;;;;;;;0.35;0.35;;;;;;;-150.07;66.75;61217.13;4981575;28;20030;-94
2021/05/17 00:06:34;;;;;;;0.32;0.32;;;;;;;-150.07;67.35;62688.34;4962061;28;20069;-92
2021/05/17 00:09:04;;;;;;;0.57;0.57;;;;;;;-150.07;67.37;61761.19;4965577;28;20503;-93
2021/05/17 00:11:31;;;;;;;0.77;0.77;;;;;;;-150.07;67.45;61903.50;4972909;28;20064;-93
2021/05/17 00:14:24;;;;;;;1.45;1.35;;;;;;;-150.07;67.68;62625.56;4976013;28;20023;-93
2021/05/17 00:17:01;;;;;;;0.20;0.20;;;;;;;-150.07;67.51;61901.41;5002743;28;20043;-94
2021/05/17 00:19:33;;;;;;;1.00;1.00;;;;;;;-150.07;66.75;61913.94;4977941;28;20011;-94
2021/05/17 00:22:04;;;;;;;2.00;1.88;;;;;;;-150.07;66.77;61872.09;5001924;28;20038;-91
2021/05/17 00:24:45;;;;;;;0.43;0.43;;;;;;;-150.07;66.83;62244.63;5016123;28;20038;-94
2021/05/17 00:27:12;;;;;;;2.10;1.48;;;;;;;-150.07;67.16;61468.22;4986812;28;20102;-94
2021/05/17 00:29:40;;;;;;;0.80;0.80;;;;;;;-150.07;67.03;61876.28;4997017;28;20031;-92
2021/05/17 00:32:08;;;;;;;1.17;1.05;;;;;;;-150.07;67.85;61353.13;4981681;28;20034;-94
2021/05/17 00:34:36;;;;;;;1.90;1.80;;;;;;;-150.07;68.55;61275.72;4980512;28;20502;-91
2021/05/17 00:37:04;;;;;;;1.38;1.38;;;;;;;-150.07;69.31;62039.53;4987336;28;20061;-92
2021/05/17 00:39:31;;;;;;;2.28;2.17;;;;;;;-150.07;69.61;61763.28;4966292;28;20377;-93
2021/05/17 00:41:58;;;;;;;3.65;3.53;;;;;;;-150.07;69.32;61792.56;4975262;28;20027;-92
2021/05/17 00:44:38;;;;;;;3.10;2.88;;;;;;;-150.07;69.49;61248.50;4976527;28;20074;-92
2021/05/17 00:47:13;;;;;;;2.22;2.17;;;;;;;-150.07;69.22;61729.78;4968271;28;20026;-92
2021/05/17 00:49:46;;;;;;;3.00;2.83;;;;;;;-150.07;69.51;61717.25;4980823;28;20062;-95
2021/05/17 00:52:14;;;;;;;1.80;1.70;;;;;;;-150.07;69.74;61518.44;4959345;28;20030;-91
2021/05/17 00:54:42;;;;;;;2.50;2.35;;;;;;;-150.07;69.31;61267.34;4966538;28;20753;-90
2021/05/17 01:00:31;;;;;;;2.10;2.00;;;;;;;-150.07;69.10;61733.97;5426532;23;20703;-95
2021/05/17 01:03:09;;;;;;;1.90;1.85;;;;;;;-150.07;68.87;61738.16;4980831;28;20050;-96
2021/05/17 01:06:09;;;;;;;1.88;1.70;;;;;;;-150.07;69.35;61761.19;4984948;28;20038;-96
2021/05/17 01:11:12;;;;;;;4.00;3.70;;;;;;;-150.07;68.87;61729.78;5017911;23;20066;-91
2021/05/17 01:13:47;;;;;;;3.85;3.55;;;;;;;-150.07;68.65;60901.19;4986472;28;20054;-93
2021/05/17 01:16:15;;;;;;;3.28;3.08;;;;;;;-150.07;68.94;61746.53;4973701;28;20819;-90
2021/05/17 01:18:42;;;;;;;2.92;2.72;;;;;;;-150.07;68.45;61022.53;5001756;28;20074;-91
2021/05/17 01:21:10;;;;;;;3.03;1.90;;;;;;;-150.07;68.41;61489.16;5013423;28;20061;-94
2021/05/17 01:23:45;;;;;;;1.08;1.08;;;;;;;-150.07;69.06;61738.16;4984761;28;20043;-95
2021/05/17 01:26:14;;;;;;;2.58;1.17;;;;;;;-150.07;68.97;61811.41;4990816;28;20117;-94
2021/05/17 01:34:37;;;;;;;2.17;1.58;;;;;;;-150.07;70.01;61706.78;796543;22;22254;-93
2021/05/17 01:37:07;;;;;;;3.95;1.02;;;;;;;-150.07;70.31;62102.31;4942944;29;20055;-95
2021/05/17 01:39:35;;;;;;;2.20;1.88;;;;;;;-150.07;70.38;61445.19;4945562;29;20038;-94
2021/05/17 01:42:03;;;;;;;0.28;0.28;;;;;;;-150.07;70.60;61541.47;4921575;29;20129;-91
2021/05/17 01:44:46;;;;;;;1.60;1.55;;;;;;;-150.07;70.93;62399.50;4943669;29;20032;-93
2021/05/17 01:47:17;;;;;;;0.40;0.40;;;;;;;-150.07;70.46;61192.00;4914135;29;20028;-90
2021/05/17 01:49:46;;;;;;;0.90;0.90;;;;;;;-150.07;70.14;61418.00;4939423;29;20132;-92
2021/05/17 01:52:15;;;;;;;1.25;1.25;;;;;;;-150.07;70.35;61344.75;4922550;29;20058;-92
2021/05/17 01:54:43;;;;;;;0.75;0.75;;;;;;;-150.07;71.17;61403.34;4946552;28;20083;-94
2021/05/17 01:57:10;;;;;;;2.00;1.90;;;;;;;-150.07;70.68;62592.06;4946394;29;20506;-91
2021/05/17 01:59:38;;;;;;;1.13;1.13;;;;;;;-150.07;70.73;60752.63;4938106;29;20039;-94
2021/05/17 02:02:05;;;;;;;1.60;1.50;;;;;;;-150.07;70.75;61669.09;4945101;29;20024;-93
2021/05/17 02:04:32;;;;;;;1.50;1.50;;;;;;;-150.07;71.54;61428.47;4957572;28;20015;-90
2021/05/17 02:07:01;;;;;;;0.25;0.25;;;;;;;-150.07;71.52;61629.34;4957184;28;20095;-93
2021/05/17 02:12:36;;;;;;;0.22;0.22;;;;;;;-150.07;71.30;62284.38;5072518;23;20043;-94
2021/05/17 02:15:09;;;;;;;0.68;0.68;;;;;;;-150.07;72.23;61219.22;5016771;28;20031;-93
2021/05/17 02:17:36;;;;;;;2.63;2.08;;;;;;;-150.07;72.36;61348.94;4985196;28;20022;-91
2021/05/17 02:20:04;;;;;;;0.52;0.52;;;;;;;-150.07;72.61;61432.66;5002469;28;20022;-92
2021/05/17 02:22:32;;;;;;;1.08;1.08;;;;;;;-150.07;72.96;62640.22;4982365;28;20079;-92
2021/05/17 02:25:02;;;;;;;0.10;0.10;;;;;;;-150.07;72.46;60704.53;5243190;23;20117;-93
2021/05/17 02:27:38;;;;;;;0.63;0.63;;;;;;;-150.07;72.74;62533.47;4976089;28;20033;-95
2021/05/17 02:30:26;;;;;;;3.63;1.23;;;;;;;-150.07;71.85;61629.34;4968824;28;20129;-93
2021/05/17 02:40:15;;;;;;;3.72;1.25;;;;;;;-150.07;71.87;61583.31;5000194;28;20093;-91
2021/05/17 02:53:00;;;;;;;0.98;0.98;;;;;;;-150.07;72.32;61612.59;4996729;28;20043;-92
2021/05/17 02:55:32;;;;;;;1.05;1.05;;;;;;;-150.07;72.32;61491.25;4980581;28;20034;-88
2021/05/17 02:58:14;;;;;;;0.50;0.50;;;;;;;-150.07;72.31;61646.09;4985308;28;20030;-96
2021/05/17 03:03:35;;;;;;;2.72;2.55;;;;;;;-150.07;71.10;61612.59;5133970;23;20038;-95
2021/05/17 03:06:07;;;;;;;0.30;0.30;;;;;;;-150.07;71.38;61369.88;5008574;28;20034;-93
2021/05/17 03:09:06;;;;;;;0.73;0.60;;;;;;;-150.07;70.54;60863.53;4988913;28;20102;-94
2021/05/17 03:11:37;;;;;;;0.30;0.30;;;;;;;-150.07;71.61;61403.34;4982991;28;20035;-95
2021/05/17 03:14:14;;;;;;;0.65;0.65;;;;;;;-150.07;72.58;61650.28;4999557;28;20022;-95
2021/05/17 03:22:02;;;;;;;0.95;0.68;;;;;;;-150.07;71.50;62029.06;5665746;23;20049;-95
2021/05/17 03:24:34;;;;;;;0.50;0.50;;;;;;;-150.07;71.74;61696.31;5009303;28;20034;-94
2021/05/17 03:27:22;;;;;;;0.55;0.55;;;;;;;-150.07;70.93;62602.53;5014912;28;20053;-96
2021/05/17 03:29:50;;;;;;;0.30;0.30;;;;;;;-150.07;70.63;61692.13;5012148;28;20030;-93
2021/05/17 03:33:07;;;;;;;0.40;0.40;;;;;;;-150.07;70.75;61683.75;5205511;23;20123;-95
2021/05/17 03:35:34;;;;;;;2.30;1.13;;;;;;;-150.07;71.11;61706.78;5023693;28;20018;-91
2021/05/17 03:38:24;;;;;;;1.10;1.10;;;;;;;-150.07;71.03;61685.84;5053033;22;20054;-95
2021/05/17 03:43:35;;;;;;;0.30;0.30;;;;;;;-150.07;71.22;61177.38;5276349;22;20415;-94
2021/05/17 03:46:02;;;;;;;0.85;0.85;;;;;;;-150.07;71.62;61616.78;4988495;28;20030;-94
2021/05/17 03:49:02;;;;;;;0.10;0.10;;;;;;;-150.07;71.79;61667.00;5224902;23;20088;-95
2021/05/17 03:51:32;;;;;;;0.45;0.45;;;;;;;-150.07;70.78;61244.31;5043959;23;20245;-92
2021/05/17 03:53:59;;;;;;;1.20;1.20;;;;;;;-150.07;70.36;61566.56;5583067;23;20081;-92
2021/05/17 03:56:42;;;;;;;0.73;0.73;;;;;;;-150.07;70.37;61198.28;5007238;28;20027;-95
2021/05/17 04:01:45;;;;;;;1.23;0.95;;;;;;;-150.07;69.79;61340.56;4975781;28;20051;-94
2021/05/17 04:14:03;;;;;;;0.22;0.22;;;;;;;-150.07;67.80;61736.06;4961725;29;20095;-96
2021/05/17 04:16:46;;;;;;;0.20;0.20;;;;;;;-150.07;67.54;61872.09;4942969;28;20039;-96
2021/05/17 04:27:00;;;;;;;1.00;1.00;;;;;;;-150.07;66.33;61798.84;5135702;23;20061;-94
2021/05/17 04:32:30;;;;;;;0.73;0.73;;;;;;;-150.07;67.06;62621.38;5134138;23;20049;-96
2021/05/17 04:41:18;;;;;;;0.50;0.50;;;;;;;-150.07;67.74;61788.38;5614637;22;20009;31
2021/05/17 04:44:51;;;;;;;1.50;1.40;;;;;;;-150.07;67.16;61838.63;4940323;29;20052;-94
2021/05/17 05:04:10;;;;;;;1.00;1.00;;;;;;;-150.07;65.56;61081.13;5036160;28;20054;-91
2021/05/17 05:06:37;;;;;;;1.23;1.13;;;;;;;-150.07;65.47;61248.50;5035971;28;20056;-91
2021/05/17 05:09:05;;;;;;;4.22;2.28;;;;;;;-150.07;64.92;61273.63;5036785;28;20029;-91
2021/05/17 05:11:31;;;;;;;1.33;1.33;;;;;;;-150.07;65.18;62780.44;5033939;28;20117;-92
2021/05/17 05:14:00;;;;;;;1.38;0.85;;;;;;;-150.07;65.00;61574.94;5036419;28;20018;-88
2021/05/17 05:16:28;;;;;;;0.52;0.52;;;;;;;-150.07;64.82;61830.25;5027074;28;20096;-93
2021/05/17 05:18:55;;;;;;;0.55;0.50;;;;;;;-150.07;65.03;62899.78;5020371;28;20719;-93
2021/05/17 05:21:22;;;;;;;0.93;0.93;;;;;;;-150.07;63.70;61484.97;5004405;28;20034;-92
2021/05/17 05:23:49;;;;;;;0.35;0.35;;;;;;;-150.07;62.69;61953.72;5034829;28;20029;-93
2021/05/17 05:31:41;;;;;;;1.73;1.67;;;;;;;-150.07;63.49;61606.34;4995033;28;20035;-91
2021/05/17 05:34:10;;;;;;;0.45;0.45;;;;;;;-150.07;63.13;61964.19;5003997;28;20097;-92
2021/05/17 05:36:40;;;;;;;0.93;0.85;;;;;;;-150.07;64.59;61646.09;5013214;28;20081;-93
2021/05/17 05:39:07;;;;;;;2.00;1.75;;;;;;;-150.07;64.36;61652.38;5007742;28;20108;-92
2021/05/17 05:41:37;;;;;;;0.43;0.43;;;;;;;-150.07;63.58;61813.50;5000123;28;20094;-93
2021/05/17 05:44:06;;;;;;;0.30;0.30;;;;;;;-150.07;61.78;62625.56;5001452;28;20006;-92
2021/05/17 05:46:32;;;;;;;0.80;0.80;;;;;;;-150.07;60.92;62196.50;5013626;28;20037;-91
2021/05/17 05:48:59;;;;;;;1.73;1.67;;;;;;;-150.07;61.90;61918.13;5008445;28;20053;-88
2021/05/17 05:51:29;;;;;;;0.63;0.63;;;;;;;-150.07;62.40;61985.09;5005534;28;20034;-88
2021/05/17 05:53:59;;;;;;;0.55;0.55;;;;;;;-150.07;61.28;62039.53;5004472;28;20057;-90
2021/05/17 05:56:27;;;;;;;1.40;1.35;;;;;;;-150.07;62.24;61832.34;5005824;28;20487;-91
2021/05/17 05:58:54;;;;;;;1.90;1.80;;;;;;;-150.07;61.36;62726.03;5016770;28;20026;-92
2021/05/17 06:01:21;;;;;;;0.43;0.43;;;;;;;-150.07;61.07;62975.13;5026836;28;20032;-89
2021/05/17 06:03:48;;;;;;;0.60;0.60;;;;;;;-150.07;61.25;61710.97;5013964;28;20125;-93
2021/05/17 06:06:15;;;;;;;0.43;0.43;;;;;;;-150.07;61.71;62543.94;5011353;28;20040;-93
2021/05/17 06:08:43;;;;;;;0.10;0.10;;;;;;;-150.07;61.35;62556.47;5014062;28;20089;-91
2021/05/17 06:11:11;;;;;;;0.55;0.55;;;;;;;-150.07;61.28;62897.69;5005889;28;20501;-94
2021/05/17 06:13:40;;;;;;;0.30;0.30;;;;;;;-150.07;61.17;62043.72;5008027;28;20021;-93
2021/05/17 06:16:08;;;;;;;0.50;0.50;;;;;;;-150.07;60.65;61692.13;5002022;28;20045;-85
2021/05/17 06:18:36;;;;;;;0.20;0.20;;;;;;;-150.07;60.86;62066.72;5015391;28;20034;-84
2021/05/17 06:21:04;;;;;;;0.65;0.65;;;;;;;-150.07;58.02;62003.94;5012950;28;20025;-87
2021/05/17 06:23:32;;;;;;;0.30;0.30;;;;;;;-150.07;56.79;62215.31;5005630;28;20029;-92
2021/05/17 06:25:59;;;;;;;0.28;0.28;;;;;;;-150.07;57.04;62031.16;5015943;28;20097;-90
2021/05/17 06:28:26;;;;;;;2.20;2.05;;;;;;;-150.07;56.88;61976.75;5010270;28;20067;-91
2021/05/17 06:30:57;;;;;;;0.32;0.32;;;;;;;-150.07;57.70;63169.81;5016163;28;20527;-90
2021/05/17 06:33:24;;;;;;;3.33;3.13;;;;;;;-150.07;56.26;62278.13;5000353;28;20026;-90
2021/05/17 06:35:56;;;;;;;0.90;0.88;;;;;;;-150.07;56.58;61767.47;5009424;28;20080;-90
2021/05/17 06:38:24;;;;;;;0.68;0.68;;;;;;;-150.07;55.55;62296.94;5014811;28;20053;-89
2021/05/17 06:40:53;;;;;;;0.93;0.93;;;;;;;-150.07;56.23;62227.88;5014774;28;20049;-90
2021/05/17 06:43:21;;;;;;;0.68;0.68;;;;;;;-150.07;58.42;62512.53;5017809;28;20022;-89
2021/05/17 06:45:48;;;;;;;0.20;0.20;;;;;;;-150.07;55.91;62409.97;5009338;28;20036;-89
2021/05/17 06:48:15;;;;;;;0.85;0.85;;;;;;;-150.07;57.01;62269.75;4998784;28;20045;-90
2021/05/17 06:50:42;;;;;;;0.65;0.65;;;;;;;-150.07;56.74;62253.00;4999987;28;20483;-87
2021/05/17 06:53:10;;;;;;;0.63;0.50;;;;;;;-150.07;55.25;62018.59;4999547;28;20092;-88
2021/05/17 06:56:01;;;;;;;1.25;1.25;;;;;;;-150.07;56.10;62924.88;5014798;28;20033;-90
2021/05/17 06:58:28;;;;;;;0.20;0.20;;;;;;;-150.07;56.15;61811.41;5014264;28;20487;-89
2021/05/17 07:00:55;;;;;;;0.73;0.73;;;;;;;-150.07;56.51;61641.91;5030827;28;20466;-89
2021/05/17 07:03:23;;;;;;;0.85;0.85;;;;;;;-150.07;56.80;61867.91;5016636;28;20052;-84
2021/05/17 07:05:51;;;;;;;0.10;0.10;;;;;;;-150.07;56.00;61878.38;5016378;28;20026;-82
2021/05/17 07:13:33;;;;;;;0.52;0.52;;;;;;;-150.07;58.99;62234.16;4970789;28;20093;-83
2021/05/17 07:16:00;;;;;;;0.35;0.35;;;;;;;-150.07;60.79;62868.38;5004326;28;20148;-85
2021/05/17 07:18:26;;;;;;;0.10;0.10;;;;;;;-150.07;62.66;61909.78;5011022;28;20034;-84
2021/05/17 07:26:25;;;;;;;2.17;2.00;;;;;;;-150.07;62.17;63153.06;4917538;29;20051;-83
2021/05/17 07:28:53;;;;;;;1.00;1.00;;;;;;;-150.07;63.42;61876.28;4931148;29;20125;-83
2021/05/17 07:31:20;;;;;;;0.77;0.77;;;;;;;-150.07;63.75;61985.09;4969780;28;20037;-83
2021/05/17 07:33:46;;;;;;;0.08;0.08;;;;;;;-150.07;63.70;61821.88;4992758;28;20038;-84
2021/05/17 07:36:13;;;;;;;0.50;0.50;;;;;;;-150.07;63.17;63065.16;5010036;28;20076;-85
2021/05/17 07:38:42;;;;;;;1.13;0.30;;;;;;;-150.07;62.60;62133.69;5010689;28;20026;-83
2021/05/17 07:41:09;;;;;;;3.15;0.95;;;;;;;-150.07;61.56;62010.22;4993317;28;20030;-83
2021/05/17 07:43:35;;;;;;;4.85;1.17;;;;;;;-150.07;61.12;61989.28;5010952;28;20509;-85
2021/05/17 07:46:02;;;;;;;2.10;1.55;;;;;;;-150.07;61.49;62253.00;4993339;28;20056;-83
2021/05/17 07:48:29;;;;;;;1.98;1.30;;;;;;;-150.07;61.57;61972.56;4991802;28;20461;-84
2021/05/17 07:50:56;;;;;;;1.40;1.40;;;;;;;-150.07;61.71;62014.41;4993093;28;20084;-84
2021/05/17 07:53:23;;;;;;;2.05;1.83;;;;;;;-150.07;61.76;62031.16;5011096;28;20030;-84
2021/05/17 07:55:51;;;;;;;0.52;0.52;;;;;;;-150.07;62.52;62931.16;5008973;28;20033;-84
2021/05/17 07:58:18;;;;;;;1.75;1.65;;;;;;;-150.07;63.14;61913.94;5014188;28;20475;-84
2021/05/17 08:00:45;;;;;;;1.45;1.05;;;;;;;-150.07;64.01;61662.84;5010477;28;20014;-83
2021/05/17 08:03:12;;;;;;;0.10;0.10;;;;;;;-150.07;63.43;62190.22;5022469;28;20041;-83
2021/05/17 08:05:39;;;;;;;0.82;0.82;;;;;;;-150.07;63.27;61436.84;5027857;28;20022;-83
2021/05/17 08:08:06;;;;;;;0.60;0.60;;;;;;;-150.07;64.11;61583.31;5012361;28;20029;-83
2021/05/17 08:10:34;;;;;;;0.17;0.17;;;;;;;-150.07;63.85;62001.84;5012384;28;20036;-84
2021/05/17 08:13:01;;;;;;;0.45;0.45;;;;;;;-150.07;64.24;61826.06;5012520;28;20021;-82
2021/05/17 08:15:28;;;;;;;1.00;0.65;;;;;;;-150.07;64.05;61773.75;4995284;28;20441;-84
2021/05/17 08:17:55;;;;;;;1.38;1.38;;;;;;;-150.07;63.28;63040.03;4993808;28;20478;-84
2021/05/17 08:20:23;;;;;;;0.68;0.68;;;;;;;-150.07;62.38;62135.78;4999625;28;20431;-83
2021/05/17 08:22:49;;;;;;;0.30;0.30;;;;;;;-150.07;62.25;61955.81;5013162;28;20103;-83
2021/05/17 08:25:17;;;;;;;2.70;2.55;;;;;;;-150.07;61.54;61633.53;5022159;28;20030;-84
2021/05/17 08:27:44;;;;;;;0.57;0.57;;;;;;;-150.07;62.57;61520.53;5011549;28;20053;-81
2021/05/17 08:30:12;;;;;;;0.68;0.68;;;;;;;-150.07;62.17;61941.16;5011023;28;20447;-83
2021/05/17 08:32:39;;;;;;;0.17;0.17;;;;;;;-150.07;62.45;61819.78;4998262;28;21381;-82
2021/05/17 08:35:06;;;;;;;0.57;0.57;;;;;;;-150.07;63.77;61863.72;5027379;28;20028;-83
2021/05/17 08:37:33;;;;;;;0.40;0.40;;;;;;;-150.07;64.04;61660.75;5010545;28;20392;-83
2021/05/17 08:40:00;;;;;;;0.63;0.63;;;;;;;-150.07;63.82;61650.28;5012031;28;20025;-83
2021/05/17 08:42:28;;;;;;;0.47;0.47;;;;;;;-150.07;63.32;62001.84;5021163;28;20034;-82
2021/05/17 08:44:55;;;;;;;0.63;0.63;;;;;;;-150.07;62.74;62119.06;5009086;28;20024;-85
2021/05/17 08:47:22;;;;;;;12.35;1.27;;;;;;;-150.07;61.47;61943.25;4996041;28;20034;-83
2021/05/17 08:49:49;;;;;;;2.05;1.95;;;;;;;-150.07;61.14;62474.84;5014006;28;20022;-83
2021/05/17 08:52:16;;;;;;;0.80;0.70;;;;;;;-150.07;61.26;61943.25;4995759;28;20061;-83
2021/05/17 08:54:43;;;;;;;0.40;0.40;;;;;;;-150.07;62.08;61549.84;5013693;28;20114;-83
2021/05/17 08:57:10;;;;;;;0.17;0.17;;;;;;;-150.07;61.85;63031.66;5033725;28;20025;-82
2021/05/17 08:59:37;;;;;;;0.08;0.08;;;;;;;-150.07;62.07;61803.03;5033481;28;20034;-82
2021/05/17 09:02:04;;;;;;;1.08;1.08;;;;;;;-150.07;62.42;61880.47;5033128;28;20089;-83
2021/05/17 09:04:31;;;;;;;0.68;0.63;;;;;;;-150.07;62.60;62068.81;5013701;28;20025;-83
2021/05/17 09:06:58;;;;;;;1.13;1.08;;;;;;;-150.07;63.36;62010.22;5015576;28;20033;-82
2021/05/17 09:09:25;;;;;;;1.90;1.83;;;;;;;-150.07;63.88;62003.94;5014575;28;20029;-83
2021/05/17 09:11:54;;;;;;;18.75;13.95;;;;;;;-150.07;63.84;61742.34;5014979;28;20041;-83
2021/05/17 09:14:23;;;;;;;20.13;14.77;;;;;;;-150.07;64.07;61939.06;5000465;28;20032;-83
2021/05/17 09:16:57;;;;;;;25.15;15.65;;;;;;;-150.07;65.13;61985.09;4994793;28;20311;-82
2021/05/17 09:19:25;;;;;;;25.45;15.80;;;;;;;-150.07;64.59;61738.16;5016651;28;20026;-82
2021/05/17 09:22:11;;;;;;;22.55;16.30;;;;;;;-150.07;65.99;61832.34;5012835;28;20579;-82
2021/05/17 09:24:43;;;;;;;22.23;17.08;;;;;;;-150.07;66.49;61784.22;5015316;28;20041;-83
2021/05/17 09:27:13;;;;;;;24.40;17.45;;;;;;;-150.07;66.54;61399.16;5030795;28;20022;-82
2021/05/17 09:29:46;;;;;;;20.15;16.63;;;;;;;-150.07;66.04;61830.25;5005439;28;20045;-83
2021/05/17 09:32:19;;;;;;;24.77;18.23;;;;;;;-150.07;66.17;61859.53;5018422;28;20089;-82
2021/05/17 09:35:13;;;;;;;24.30;17.35;;;;;;;-150.07;66.05;62883.03;4997946;28;20388;-82
2021/05/17 09:37:46;;;;;;;21.00;15.20;;;;;;;-150.07;66.07;61880.47;4995545;28;20034;-83
2021/05/17 09:40:25;;;;;;;20.65;16.52;;;;;;;-150.07;65.67;61934.88;4995213;28;20026;-83
2021/05/17 09:43:08;;;;;;;22.23;16.80;;;;;;;-150.07;65.92;61857.44;5012835;28;20042;-82
2021/05/17 09:45:46;;;;;;;26.30;16.52;;;;;;;-150.07;66.01;61857.44;5012798;28;20026;-83
2021/05/17 09:48:25;;;;;;;16.55;13.20;;;;;;;-150.07;65.67;61884.66;4994956;28;20033;-84
2021/05/17 09:51:03;;;;;;;16.77;13.13;;;;;;;-150.07;65.29;61926.50;5006837;28;20487;-82
2021/05/17 09:53:34;;;;;;;16.08;14.25;;;;;;;-150.07;64.84;61913.94;5013355;28;20052;-82
2021/05/17 09:56:08;;;;;;;17.48;13.75;;;;;;;-150.07;65.14;61880.47;5013685;28;20030;-83
2021/05/17 09:58:37;;;;;;;14.80;12.07;;;;;;;-150.07;64.84;61920.22;4993902;28;20032;-82
2021/05/17 10:01:17;;;;;;;18.08;12.10;;;;;;;-150.07;64.99;61926.50;4994367;28;20389;-84
2021/05/17 10:03:55;;;;;;;18.23;12.90;;;;;;;-150.07;65.09;61888.84;5003896;28;20054;-83
2021/05/17 10:06:24;;;;;;;21.15;13.05;;;;;;;-150.07;65.16;62941.63;5010831;28;20087;-83
2021/05/17 10:08:52;;;;;;;18.48;13.55;;;;;;;-150.07;64.68;61800.94;4997460;28;20034;-87
2021/05/17 10:11:20;;;;;;;18.05;12.32;;;;;;;-150.07;64.72;61913.94;4997662;28;20480;-85
2021/05/17 10:13:48;;;;;;;15.93;10.95;;;;;;;-150.07;64.83;61962.09;5007350;28;20109;-88
2021/05/17 10:16:16;;;;;;;20.38;13.77;;;;;;;-150.07;65.26;61830.25;5015141;28;20042;-90
2021/05/17 10:18:45;;;;;;;13.90;12.43;;;;;;;-150.07;66.21;61543.56;5007057;28;20022;-88
2021/05/17 10:21:18;;;;;;;14.88;11.85;;;;;;;-150.07;66.32;61782.13;4998842;28;20030;-90
2021/05/17 10:23:47;;;;;;;15.35;12.45;;;;;;;-150.07;65.84;61798.84;4999612;28;20026;-89
2021/05/17 10:26:16;;;;;;;19.25;13.52;;;;;;;-150.07;66.34;61834.44;5002936;28;20391;-89
2021/05/17 10:28:52;;;;;;;13.07;11.55;;;;;;;-150.07;66.16;61307.09;5000259;28;20030;-89
2021/05/17 10:31:21;;;;;;;14.38;12.77;;;;;;;-150.07;66.16;61495.41;4995316;28;20030;-88
2021/05/17 10:34:09;;;;;;;18.20;12.95;;;;;;;-150.07;66.43;61570.75;5026250;28;20025;-88
2021/05/17 10:36:57;;;;;;;14.73;11.18;;;;;;;-150.07;66.00;61788.38;5012430;28;20061;-88
2021/05/17 10:39:40;;;;;;;14.95;10.68;;;;;;;-150.07;65.95;62895.59;5014822;28;20518;-87
2021/05/17 10:48:24;;;;;;;15.82;12.43;;;;;;;-150.07;66.38;61805.13;5026294;28;20118;-89
2021/05/17 10:51:11;;;;;;;17.88;12.25;;;;;;;-150.07;66.97;61378.25;5014398;28;20030;-89
2021/05/17 10:53:47;;;;;;;20.25;13.77;;;;;;;-150.07;68.08;61702.59;5007515;28;20590;-89
2021/05/17 10:56:37;;;;;;;14.55;12.90;;;;;;;-150.07;68.89;61675.38;5012215;28;20049;-88
2021/05/17 11:02:08;;;;;;;16.20;13.20;;;;;;;-150.07;68.53;61696.31;5015515;28;20045;-93
2021/05/17 11:04:39;;;;;;;19.05;13.23;;;;;;;-150.07;68.84;62684.16;5035917;28;20145;-94
2021/05/17 11:07:19;;;;;;;19.35;14.02;;;;;;;-150.07;68.65;61595.88;5022720;28;20471;-93
2021/05/17 11:09:52;;;;;;;21.48;14.55;;;;;;;-150.07;68.35;61710.97;5021140;28;20056;-94
2021/05/17 11:12:28;;;;;;;22.48;13.82;;;;;;;-150.07;67.55;61763.28;5023321;28;20543;-94
2021/05/17 11:15:12;;;;;;;18.13;13.23;;;;;;;-150.07;67.43;61775.84;5006823;28;20049;-95
2021/05/17 11:18:03;;;;;;;19.60;13.95;;;;;;;-150.07;67.56;61750.72;5016590;28;20026;-92
2021/05/17 11:20:51;;;;;;;15.82;13.75;;;;;;;-150.07;68.33;61411.72;5004649;28;20034;-94
2021/05/17 11:23:26;;;;;;;17.73;13.10;;;;;;;-150.07;68.68;61673.28;5008638;28;20041;-93
2021/05/17 11:25:59;;;;;;;21.98;14.43;;;;;;;-150.07;69.09;61658.66;5033971;28;20483;-93
2021/05/17 11:28:41;;;;;;;21.58;15.82;;;;;;;-150.07;69.40;61637.72;5013301;28;20060;-95
2021/05/17 11:31:39;;;;;;;24.52;15.52;;;;;;;-150.07;69.32;61658.66;5013393;28;20038;-95
2021/05/17 11:34:07;;;;;;;17.67;13.40;;;;;;;-150.07;69.37;61650.28;5021131;28;21097;-93
2021/05/17 11:36:47;;;;;;;25.83;15.18;;;;;;;-150.07;68.70;62801.38;5016427;28;20026;-94
2021/05/17 11:39:34;;;;;;;22.85;13.40;;;;;;;-150.07;68.52;61687.94;5013532;28;20064;-95
2021/05/17 11:42:02;;;;;;;20.08;13.75;;;;;;;-150.07;68.37;61713.06;4988217;28;20046;-93
2021/05/17 11:47:31;;;;;;;20.80;13.10;;;;;;;-150.07;67.96;61286.19;5030537;28;20033;-95
2021/05/17 11:49:59;;;;;;;23.45;13.93;;;;;;;-150.07;67.46;61554.00;5006355;28;20495;-94
2021/05/17 11:52:31;;;;;;;16.48;12.38;;;;;;;-150.07;66.83;61771.66;5013778;28;20121;-91
2021/05/17 11:55:05;;;;;;;20.17;14.38;;;;;;;-150.07;66.31;61355.22;5014032;28;20022;-95
2021/05/17 11:57:43;;;;;;;15.73;12.50;;;;;;;-150.07;66.25;61782.13;5032426;28;20042;-95
2021/05/17 12:00:17;;;;;;;19.40;12.70;;;;;;;-150.07;66.54;60754.72;5030029;28;20084;-95
2021/05/17 12:02:48;;;;;;;18.10;12.35;;;;;;;-150.07;66.98;61750.72;5016420;28;20064;-94
2021/05/17 12:05:16;;;;;;;18.02;14.07;;;;;;;-150.07;66.86;62261.38;5010934;28;20080;-94
2021/05/17 12:07:49;;;;;;;20.60;14.57;;;;;;;-150.07;66.78;61397.06;5030085;28;20037;-96
2021/05/17 12:10:18;;;;;;;19.85;13.82;;;;;;;-150.07;66.94;61432.66;5014519;28;20037;-91
2021/05/17 12:12:45;;;;;;;18.67;12.85;;;;;;;-150.07;67.11;61729.78;5007454;28;20029;-94
2021/05/17 12:15:17;;;;;;;18.27;13.15;;;;;;;-150.07;66.83;61478.69;5008786;28;20095;-88
2021/05/17 12:17:44;;;;;;;22.17;12.30;;;;;;;-150.07;66.41;61658.66;5007511;28;20561;-94
2021/05/17 12:20:15;;;;;;;16.08;13.13;;;;;;;-150.07;66.79;61648.19;5010441;28;20030;-93
2021/05/17 12:22:44;;;;;;;15.13;13.32;;;;;;;-150.07;67.33;61700.50;5010610;28;20038;-94
2021/05/17 12:25:19;;;;;;;22.85;13.27;;;;;;;-150.07;67.00;61181.56;5012830;28;20102;-93
2021/05/17 12:27:48;;;;;;;20.17;14.30;;;;;;;-150.07;67.61;61298.72;5010131;28;20041;-94
2021/05/17 12:30:17;;;;;;;19.05;13.60;;;;;;;-150.07;68.61;61585.41;5013409;28;20040;-93
2021/05/17 12:32:46;;;;;;;19.40;14.57;;;;;;;-150.07;68.57;61531.00;5019080;28;20034;-93
2021/05/17 12:35:18;;;;;;;20.35;14.75;;;;;;;-150.07;68.10;61677.47;5014706;28;20030;-94
2021/05/17 12:37:55;;;;;;;20.92;13.48;;;;;;;-150.07;67.17;61687.94;5012922;28;20033;-95
2021/05/17 12:40:40;;;;;;;19.23;12.93;;;;;;;-150.07;67.25;61212.94;5009265;28;20030;-92
2021/05/17 12:43:17;;;;;;;19.60;14.15;;;;;;;-150.07;67.25;61652.38;5010917;28;20034;-95
2021/05/17 12:45:50;;;;;;;19.98;14.95;;;;;;;-150.07;67.43;61700.50;5010348;28;20098;-94
2021/05/17 12:48:32;;;;;;;22.40;14.98;;;;;;;-150.07;66.71;61702.59;5027731;28;20092;-95
2021/05/17 12:51:25;;;;;;;21.58;14.30;;;;;;;-150.07;66.30;61742.34;5013463;28;20049;-93
2021/05/17 12:54:19;;;;;;;18.42;14.32;;;;;;;-150.07;66.43;62512.53;5031140;28;20028;-94
2021/05/17 12:56:47;;;;;;;25.25;15.15;;;;;;;-150.07;66.30;61290.34;5031622;28;20034;-94
2021/05/17 12:59:18;;;;;;;24.30;15.15;;;;;;;-150.07;66.04;61570.75;5017702;28;20045;-91
2021/05/17 13:01:45;;;;;;;20.00;15.65;;;;;;;-150.07;66.02;62726.03;5032472;28;21263;-94
2021/05/17 13:04:24;;;;;;;23.92;17.08;;;;;;;-150.07;66.09;62730.22;5031847;28;20062;-94
2021/05/17 13:07:09;;;;;;;22.52;14.95;;;;;;;-150.07;65.96;61531.00;5003220;28;20025;-93
2021/05/17 13:09:36;;;;;;;20.98;16.02;;;;;;;-150.07;65.78;62690.44;5038781;28;20049;-92
2021/05/17 13:12:04;;;;;;;25.48;18.58;;;;;;;-150.07;65.45;62761.63;5021874;28;20025;-92
2021/05/17 13:14:32;;;;;;;23.92;18.13;;;;;;;-150.07;65.61;61683.75;5015831;28;20050;-96
2021/05/17 13:17:03;;;;;;;23.55;16.60;;;;;;;-150.07;65.74;61717.25;5015002;28;20069;-94
2021/05/17 13:31:03;;;;;;;22.83;17.60;;;;;;;-150.07;66.59;61690.03;5017858;28;20502;-88
2021/05/17 13:33:47;;;;;;;22.63;17.40;;;;;;;-150.07;67.12;61503.78;5014355;28;20124;-86
2021/05/17 13:36:16;;;;;;;22.20;15.95;;;;;;;-150.07;66.75;61056.00;4998569;28;20038;-87
2021/05/17 13:38:48;;;;;;;25.23;16.75;;;;;;;-150.07;66.63;61662.84;4998454;28;20026;-88
2021/05/17 13:41:17;;;;;;;18.85;13.85;;;;;;;-150.07;66.01;61641.91;5000724;28;20061;-88
2021/05/17 13:43:45;;;;;;;19.80;14.20;;;;;;;-150.07;66.12;61371.97;5000760;28;20054;-88